sensor_id;sensor_type;location;lat;lon;timestamp;P1;durP1;ratioP1;P2;durP2;ratioP2
487;SDS011;16586;48.976;9.584;2022-10-17T00:00:04;1.48;;;1.25;;
487;SDS011;16586;48.976;9.584;2022-10-17T00:02:31;1.80;;;1.00;;
487;SDS011;16586;48.976;9.584;2022-10-17T00:04:58;1.63;;;1.23;;
487;SDS011;16586;48.976;9.584;2022-10-17T00:07:25;1.33;;;0.98;;
487;SDS011;16586;48.976;9.584;2022-10-17T00:09:52;2.45;;;0.88;;
487;SDS011;16586;48.976;9.584;2022-10-17T00:12:20;1.30;;;0.70;;
487;SDS011;16586;48.976;9.584;2022-10-17T00:14:47;1.30;;;0.90;;
487;SDS011;16586;48.976;9.584;2022-10-17T00:17:13;1.20;;;0.80;;
487;SDS011;16586;48.976;9.584;2022-10-17T00:19:40;1.45;;;0.90;;
487;SDS011;16586;48.976;9.584;2022-10-17T00:22:07;2.10;;;1.17;;
487;SDS011;16586;48.976;9.584;2022-10-17T00:24:34;1.40;;;0.90;;
487;SDS011;16586;48.976;9.584;2022-10-17T00:27:01;1.30;;;0.80;;
487;SDS011;16586;48.976;9.584;2022-10-17T00:29:30;1.80;;;1.20;;
487;SDS011;16586;48.976;9.584;2022-10-17T00:31:56;1.85;;;1.15;;
487;SDS011;16586;48.976;9.584;2022-10-17T00:34:24;1.80;;;0.90;;
487;SDS011;16586;48.976;9.584;2022-10-17T00:36:51;1.60;;;0.90;;
487;SDS011;16586;48.976;9.584;2022-10-17T00:39:17;1.90;;;0.80;;
487;SDS011;16586;48.976;9.584;2022-10-17T00:41:44;1.20;;;0.80;;
487;SDS011;16586;48.976;9.584;2022-10-17T00:47:18;1.57;;;0.80;;
487;SDS011;16586;48.976;9.584;2022-10-17T00:49:47;1.80;;;0.90;;
487;SDS011;16586;48.976;9.584;2022-10-17T00:52:14;1.30;;;0.70;;
487;SDS011;16586;48.976;9.584;2022-10-17T00:54:46;1.30;;;0.70;;
487;SDS011;16586;48.976;9.584;2022-10-17T00:57:15;1.90;;;0.80;;
487;SDS011;16586;48.976;9.584;2022-10-17T00:59:43;1.70;;;0.90;;
487;SDS011;16586;48.976;9.584;2022-10-17T01:02:15;1.50;;;0.75;;
487;SDS011;16586;48.976;9.584;2022-10-17T01:04:46;2.78;;;0.82;;
487;SDS011;16586;48.976;9.584;2022-10-17T01:07:15;1.10;;;0.80;;
487;SDS011;16586;48.976;9.584;2022-10-17T01:09:42;1.30;;;0.70;;
487;SDS011;16586;48.976;9.584;2022-10-17T01:12:11;1.20;;;0.70;;
487;SDS011;16586;48.976;9.584;2022-10-17T01:14:45;2.30;;;0.80;;
487;SDS011;16586;48.976;9.584;2022-10-17T01:17:26;1.83;;;0.70;;
487;SDS011;16586;48.976;9.584;2022-10-17T01:20:07;1.40;;;0.60;;
487;SDS011;16586;48.976;9.584;2022-10-17T01:23:02;1.00;;;0.60;;
487;SDS011;16586;48.976;9.584;2022-10-17T01:25:43;1.20;;;0.65;;
487;SDS011;16586;48.976;9.584;2022-10-17T01:28:24;1.10;;;0.70;;
487;SDS011;16586;48.976;9.584;2022-10-17T01:31:05;2.10;;;0.80;;
487;SDS011;16586;48.976;9.584;2022-10-17T01:33:42;1.30;;;0.90;;
487;SDS011;16586;48.976;9.584;2022-10-17T01:36:16;1.60;;;0.77;;
487;SDS011;16586;48.976;9.584;2022-10-17T01:38:52;1.00;;;0.70;;
487;SDS011;16586;48.976;9.584;2022-10-17T01:41:24;1.30;;;0.70;;
487;SDS011;16586;48.976;9.584;2022-10-17T01:44:01;1.77;;;0.60;;
487;SDS011;16586;48.976;9.584;2022-10-17T01:46:35;1.02;;;0.70;;
487;SDS011;16586;48.976;9.584;2022-10-17T01:49:04;1.00;;;0.60;;
487;SDS011;16586;48.976;9.584;2022-10-17T01:51:35;1.80;;;0.80;;
487;SDS011;16586;48.976;9.584;2022-10-17T01:54:06;1.50;;;0.80;;
487;SDS011;16586;48.976;9.584;2022-10-17T01:56:36;1.50;;;0.63;;
487;SDS011;16586;48.976;9.584;2022-10-17T01:59:05;1.17;;;0.65;;
487;SDS011;16586;48.976;9.584;2022-10-17T02:01:38;2.00;;;0.60;;
487;SDS011;16586;48.976;9.584;2022-10-17T02:04:08;1.30;;;0.77;;
487;SDS011;16586;48.976;9.584;2022-10-17T02:06:36;1.10;;;0.60;;
487;SDS011;16586;48.976;9.584;2022-10-17T02:09:15;1.30;;;0.70;;
487;SDS011;16586;48.976;9.584;2022-10-17T02:11:44;1.40;;;0.70;;
487;SDS011;16586;48.976;9.584;2022-10-17T02:14:28;1.60;;;0.90;;
487;SDS011;16586;48.976;9.584;2022-10-17T02:17:10;1.60;;;0.70;;
487;SDS011;16586;48.976;9.584;2022-10-17T02:19:49;2.40;;;0.60;;
487;SDS011;16586;48.976;9.584;2022-10-17T02:22:26;1.42;;;0.52;;
487;SDS011;16586;48.976;9.584;2022-10-17T02:25:09;1.00;;;0.60;;
487;SDS011;16586;48.976;9.584;2022-10-17T02:27:44;1.60;;;0.80;;
487;SDS011;16586;48.976;9.584;2022-10-17T02:30:19;1.30;;;0.60;;
487;SDS011;16586;48.976;9.584;2022-10-17T02:32:56;1.00;;;0.60;;
487;SDS011;16586;48.976;9.584;2022-10-17T02:35:28;1.20;;;0.70;;
487;SDS011;16586;48.976;9.584;2022-10-17T02:37:58;1.10;;;0.60;;
487;SDS011;16586;48.976;9.584;2022-10-17T02:40:25;1.00;;;0.60;;
487;SDS011;16586;48.976;9.584;2022-10-17T02:42:55;2.28;;;0.70;;
487;SDS011;16586;48.976;9.584;2022-10-17T02:45:25;1.00;;;0.60;;
487;SDS011;16586;48.976;9.584;2022-10-17T02:47:54;0.90;;;0.45;;
487;SDS011;16586;48.976;9.584;2022-10-17T02:50:29;1.00;;;0.60;;
487;SDS011;16586;48.976;9.584;2022-10-17T02:53:04;1.00;;;0.50;;
487;SDS011;16586;48.976;9.584;2022-10-17T02:55:35;1.17;;;0.65;;
487;SDS011;16586;48.976;9.584;2022-10-17T02:58:07;2.00;;;0.60;;
487;SDS011;16586;48.976;9.584;2022-10-17T03:00:38;2.10;;;0.70;;
487;SDS011;16586;48.976;9.584;2022-10-17T03:03:18;4.60;;;0.90;;
487;SDS011;16586;48.976;9.584;2022-10-17T03:05:46;1.80;;;0.50;;
487;SDS011;16586;48.976;9.584;2022-10-17T03:08:13;1.60;;;0.70;;
487;SDS011;16586;48.976;9.584;2022-10-17T03:10:40;1.00;;;0.50;;
487;SDS011;16586;48.976;9.584;2022-10-17T03:13:07;0.90;;;0.60;;
487;SDS011;16586;48.976;9.584;2022-10-17T03:15:33;1.90;;;0.70;;
487;SDS011;16586;48.976;9.584;2022-10-17T03:18:00;2.30;;;0.60;;
487;SDS011;16586;48.976;9.584;2022-10-17T03:20:28;1.10;;;0.60;;
487;SDS011;16586;48.976;9.584;2022-10-17T03:22:55;1.50;;;0.70;;
487;SDS011;16586;48.976;9.584;2022-10-17T03:25:22;1.40;;;0.70;;
487;SDS011;16586;48.976;9.584;2022-10-17T03:27:49;2.00;;;0.80;;
487;SDS011;16586;48.976;9.584;2022-10-17T03:30:16;1.40;;;0.68;;
487;SDS011;16586;48.976;9.584;2022-10-17T03:32:43;0.90;;;0.60;;
487;SDS011;16586;48.976;9.584;2022-10-17T03:35:10;0.90;;;0.50;;
487;SDS011;16586;48.976;9.584;2022-10-17T03:37:38;1.25;;;0.80;;
487;SDS011;16586;48.976;9.584;2022-10-17T03:40:05;1.27;;;0.70;;
487;SDS011;16586;48.976;9.584;2022-10-17T03:42:32;0.90;;;0.50;;
487;SDS011;16586;48.976;9.584;2022-10-17T03:44:59;0.90;;;0.50;;
487;SDS011;16586;48.976;9.584;2022-10-17T03:47:26;1.00;;;0.50;;
487;SDS011;16586;48.976;9.584;2022-10-17T03:49:53;1.30;;;0.57;;
487;SDS011;16586;48.976;9.584;2022-10-17T03:52:20;1.20;;;0.60;;
487;SDS011;16586;48.976;9.584;2022-10-17T03:54:49;0.90;;;0.50;;
487;SDS011;16586;48.976;9.584;2022-10-17T03:57:16;1.40;;;0.50;;
487;SDS011;16586;48.976;9.584;2022-10-17T03:59:43;1.00;;;0.50;;
487;SDS011;16586;48.976;9.584;2022-10-17T04:02:10;1.75;;;0.63;;
487;SDS011;16586;48.976;9.584;2022-10-17T04:04:37;1.00;;;0.60;;
487;SDS011;16586;48.976;9.584;2022-10-17T04:07:03;1.17;;;0.60;;
487;SDS011;16586;48.976;9.584;2022-10-17T04:09:30;2.50;;;0.50;;
487;SDS011;16586;48.976;9.584;2022-10-17T04:11:58;1.23;;;0.60;;
487;SDS011;16586;48.976;9.584;2022-10-17T04:14:25;1.42;;;0.70;;
487;SDS011;16586;48.976;9.584;2022-10-17T04:16:52;1.60;;;0.60;;
487;SDS011;16586;48.976;9.584;2022-10-17T04:19:19;1.20;;;0.60;;
487;SDS011;16586;48.976;9.584;2022-10-17T04:21:46;1.60;;;0.50;;
487;SDS011;16586;48.976;9.584;2022-10-17T04:24:13;1.30;;;0.68;;
487;SDS011;16586;48.976;9.584;2022-10-17T04:26:39;1.00;;;0.60;;
487;SDS011;16586;48.976;9.584;2022-10-17T04:29:07;1.00;;;0.70;;
487;SDS011;16586;48.976;9.584;2022-10-17T04:31:34;1.13;;;0.60;;
487;SDS011;16586;48.976;9.584;2022-10-17T04:34:03;1.70;;;0.80;;
487;SDS011;16586;48.976;9.584;2022-10-17T04:36:30;1.70;;;0.80;;
487;SDS011;16586;48.976;9.584;2022-10-17T04:38:57;1.70;;;0.80;;
487;SDS011;16586;48.976;9.584;2022-10-17T04:41:25;1.40;;;0.60;;
487;SDS011;16586;48.976;9.584;2022-10-17T04:43:52;1.70;;;0.90;;
487;SDS011;16586;48.976;9.584;2022-10-17T04:46:20;1.30;;;0.80;;
487;SDS011;16586;48.976;9.584;2022-10-17T04:48:47;1.10;;;0.65;;
487;SDS011;16586;48.976;9.584;2022-10-17T04:51:14;2.70;;;0.90;;
487;SDS011;16586;48.976;9.584;2022-10-17T04:53:42;1.30;;;0.80;;
487;SDS011;16586;48.976;9.584;2022-10-17T04:56:10;1.50;;;0.90;;
487;SDS011;16586;48.976;9.584;2022-10-17T04:58:39;1.80;;;1.37;;
487;SDS011;16586;48.976;9.584;2022-10-17T05:01:07;2.30;;;1.33;;
487;SDS011;16586;48.976;9.584;2022-10-17T05:03:37;1.70;;;1.15;;
487;SDS011;16586;48.976;9.584;2022-10-17T05:06:04;1.67;;;1.48;;
487;SDS011;16586;48.976;9.584;2022-10-17T05:08:32;1.45;;;1.00;;
487;SDS011;16586;48.976;9.584;2022-10-17T05:10:59;2.78;;;1.15;;
487;SDS011;16586;48.976;9.584;2022-10-17T05:13:27;2.03;;;1.30;;
487;SDS011;16586;48.976;9.584;2022-10-17T05:15:56;1.30;;;1.10;;
487;SDS011;16586;48.976;9.584;2022-10-17T05:18:24;1.70;;;1.38;;
487;SDS011;16586;48.976;9.584;2022-10-17T05:20:52;2.40;;;1.40;;
487;SDS011;16586;48.976;9.584;2022-10-17T05:23:19;2.50;;;1.40;;
487;SDS011;16586;48.976;9.584;2022-10-17T05:25:46;2.72;;;1.17;;
487;SDS011;16586;48.976;9.584;2022-10-17T05:28:13;1.20;;;0.90;;
487;SDS011;16586;48.976;9.584;2022-10-17T05:30:42;1.20;;;1.00;;
487;SDS011;16586;48.976;9.584;2022-10-17T05:33:08;2.10;;;1.10;;
487;SDS011;16586;48.976;9.584;2022-10-17T05:35:35;1.30;;;1.20;;
487;SDS011;16586;48.976;9.584;2022-10-17T05:38:03;1.50;;;1.10;;
487;SDS011;16586;48.976;9.584;2022-10-17T05:40:30;1.45;;;1.10;;
487;SDS011;16586;48.976;9.584;2022-10-17T05:42:57;1.30;;;1.02;;
487;SDS011;16586;48.976;9.584;2022-10-17T05:45:24;1.50;;;1.00;;
487;SDS011;16586;48.976;9.584;2022-10-17T05:47:50;2.10;;;1.10;;
487;SDS011;16586;48.976;9.584;2022-10-17T05:50:17;1.30;;;0.80;;
487;SDS011;16586;48.976;9.584;2022-10-17T05:52:45;1.35;;;0.90;;
487;SDS011;16586;48.976;9.584;2022-10-17T05:55:13;1.50;;;1.02;;
487;SDS011;16586;48.976;9.584;2022-10-17T05:57:40;1.20;;;0.82;;
487;SDS011;16586;48.976;9.584;2022-10-17T06:00:08;1.17;;;0.75;;
487;SDS011;16586;48.976;9.584;2022-10-17T06:02:35;2.70;;;1.27;;
487;SDS011;16586;48.976;9.584;2022-10-17T06:05:02;1.33;;;0.90;;
487;SDS011;16586;48.976;9.584;2022-10-17T06:07:29;1.48;;;1.00;;
487;SDS011;16586;48.976;9.584;2022-10-17T06:09:56;1.30;;;0.90;;
487;SDS011;16586;48.976;9.584;2022-10-17T06:12:24;1.95;;;1.00;;
487;SDS011;16586;48.976;9.584;2022-10-17T06:14:51;1.45;;;0.90;;
487;SDS011;16586;48.976;9.584;2022-10-17T06:17:17;1.70;;;1.00;;
487;SDS011;16586;48.976;9.584;2022-10-17T06:19:44;2.20;;;1.45;;
487;SDS011;16586;48.976;9.584;2022-10-17T06:22:11;1.70;;;1.30;;
487;SDS011;16586;48.976;9.584;2022-10-17T06:24:38;2.10;;;1.40;;
487;SDS011;16586;48.976;9.584;2022-10-17T06:27:06;4.30;;;1.50;;
487;SDS011;16586;48.976;9.584;2022-10-17T06:29:34;1.52;;;1.20;;
487;SDS011;16586;48.976;9.584;2022-10-17T06:32:01;1.80;;;1.20;;
487;SDS011;16586;48.976;9.584;2022-10-17T06:34:29;2.20;;;1.10;;
487;SDS011;16586;48.976;9.584;2022-10-17T06:36:55;3.05;;;1.80;;
487;SDS011;16586;48.976;9.584;2022-10-17T06:39:22;3.75;;;1.85;;
487;SDS011;16586;48.976;9.584;2022-10-17T06:41:51;2.00;;;1.50;;
487;SDS011;16586;48.976;9.584;2022-10-17T06:44:17;2.50;;;1.60;;
487;SDS011;16586;48.976;9.584;2022-10-17T06:46:47;4.78;;;2.40;;
487;SDS011;16586;48.976;9.584;2022-10-17T06:49:14;2.70;;;2.22;;
487;SDS011;16586;48.976;9.584;2022-10-17T06:51:40;2.35;;;1.70;;
487;SDS011;16586;48.976;9.584;2022-10-17T06:54:07;1.90;;;1.80;;
487;SDS011;16586;48.976;9.584;2022-10-17T06:56:34;2.80;;;2.00;;
487;SDS011;16586;48.976;9.584;2022-10-17T06:59:01;1.90;;;1.70;;
487;SDS011;16586;48.976;9.584;2022-10-17T07:01:29;2.20;;;1.50;;
487;SDS011;16586;48.976;9.584;2022-10-17T07:03:57;1.58;;;1.40;;
487;SDS011;16586;48.976;9.584;2022-10-17T07:06:24;1.83;;;1.80;;
487;SDS011;16586;48.976;9.584;2022-10-17T07:08:51;2.40;;;1.80;;
487;SDS011;16586;48.976;9.584;2022-10-17T07:11:20;1.60;;;1.30;;
487;SDS011;16586;48.976;9.584;2022-10-17T07:13:47;2.20;;;1.10;;
487;SDS011;16586;48.976;9.584;2022-10-17T07:16:14;1.80;;;1.00;;
487;SDS011;16586;48.976;9.584;2022-10-17T07:18:41;1.20;;;0.90;;
487;SDS011;16586;48.976;9.584;2022-10-17T07:21:10;1.50;;;0.90;;
487;SDS011;16586;48.976;9.584;2022-10-17T07:23:36;2.07;;;1.73;;
487;SDS011;16586;48.976;9.584;2022-10-17T07:26:04;1.90;;;1.90;;
487;SDS011;16586;48.976;9.584;2022-10-17T07:28:32;2.50;;;1.00;;
487;SDS011;16586;48.976;9.584;2022-10-17T07:31:02;2.83;;;0.90;;
487;SDS011;16586;48.976;9.584;2022-10-17T07:33:30;1.50;;;0.90;;
487;SDS011;16586;48.976;9.584;2022-10-17T07:35:57;1.13;;;0.87;;
487;SDS011;16586;48.976;9.584;2022-10-17T07:38:25;1.40;;;1.00;;
487;SDS011;16586;48.976;9.584;2022-10-17T07:40:53;1.50;;;0.80;;
487;SDS011;16586;48.976;9.584;2022-10-17T07:43:20;1.30;;;0.70;;
487;SDS011;16586;48.976;9.584;2022-10-17T07:45:47;2.00;;;0.68;;
487;SDS011;16586;48.976;9.584;2022-10-17T07:48:14;1.23;;;0.73;;
487;SDS011;16586;48.976;9.584;2022-10-17T07:50:40;1.80;;;0.60;;
487;SDS011;16586;48.976;9.584;2022-10-17T07:53:07;1.00;;;0.60;;
487;SDS011;16586;48.976;9.584;2022-10-17T07:55:36;1.50;;;0.90;;
487;SDS011;16586;48.976;9.584;2022-10-17T07:58:04;1.10;;;0.70;;
487;SDS011;16586;48.976;9.584;2022-10-17T08:00:31;2.30;;;0.80;;
487;SDS011;16586;48.976;9.584;2022-10-17T08:02:57;1.30;;;0.90;;
487;SDS011;16586;48.976;9.584;2022-10-17T08:05:24;1.30;;;0.80;;
487;SDS011;16586;48.976;9.584;2022-10-17T08:08:00;0.98;;;0.60;;
487;SDS011;16586;48.976;9.584;2022-10-17T08:10:38;1.10;;;0.60;;
487;SDS011;16586;48.976;9.584;2022-10-17T08:13:05;1.20;;;0.70;;
487;SDS011;16586;48.976;9.584;2022-10-17T08:15:32;1.00;;;0.60;;
487;SDS011;16586;48.976;9.584;2022-10-17T08:17:58;3.50;;;0.80;;
487;SDS011;16586;48.976;9.584;2022-10-17T08:20:26;1.50;;;0.80;;
487;SDS011;16586;48.976;9.584;2022-10-17T08:22:53;1.20;;;0.80;;
487;SDS011;16586;48.976;9.584;2022-10-17T08:25:20;1.10;;;0.85;;
487;SDS011;16586;48.976;9.584;2022-10-17T08:27:49;1.10;;;0.80;;
487;SDS011;16586;48.976;9.584;2022-10-17T08:30:16;1.13;;;0.85;;
487;SDS011;16586;48.976;9.584;2022-10-17T08:32:43;1.10;;;0.90;;
487;SDS011;16586;48.976;9.584;2022-10-17T08:35:10;1.00;;;0.60;;
487;SDS011;16586;48.976;9.584;2022-10-17T08:37:38;1.17;;;0.70;;
487;SDS011;16586;48.976;9.584;2022-10-17T08:40:09;1.40;;;0.90;;
487;SDS011;16586;48.976;9.584;2022-10-17T08:42:46;1.10;;;0.77;;
487;SDS011;16586;48.976;9.584;2022-10-17T08:45:23;2.10;;;0.90;;
487;SDS011;16586;48.976;9.584;2022-10-17T08:47:56;2.20;;;0.80;;
487;SDS011;16586;48.976;9.584;2022-10-17T08:50:27;2.45;;;1.30;;
487;SDS011;16586;48.976;9.584;2022-10-17T08:53:02;1.97;;;0.90;;
487;SDS011;16586;48.976;9.584;2022-10-17T08:55:37;2.05;;;1.00;;
487;SDS011;16586;48.976;9.584;2022-10-17T08:58:12;1.10;;;0.80;;
487;SDS011;16586;48.976;9.584;2022-10-17T09:00:40;1.50;;;0.80;;
487;SDS011;16586;48.976;9.584;2022-10-17T09:03:19;1.10;;;0.70;;
487;SDS011;16586;48.976;9.584;2022-10-17T09:05:54;1.88;;;0.88;;
487;SDS011;16586;48.976;9.584;2022-10-17T09:08:31;1.10;;;0.70;;
487;SDS011;16586;48.976;9.584;2022-10-17T09:11:08;3.00;;;0.70;;
487;SDS011;16586;48.976;9.584;2022-10-17T09:13:45;1.10;;;0.70;;
487;SDS011;16586;48.976;9.584;2022-10-17T09:16:27;1.10;;;0.80;;
487;SDS011;16586;48.976;9.584;2022-10-17T09:19:03;1.80;;;0.88;;
487;SDS011;16586;48.976;9.584;2022-10-17T09:21:38;1.50;;;0.70;;
487;SDS011;16586;48.976;9.584;2022-10-17T09:24:12;1.10;;;0.68;;
487;SDS011;16586;48.976;9.584;2022-10-17T09:26:43;2.90;;;0.80;;
487;SDS011;16586;48.976;9.584;2022-10-17T09:29:14;1.10;;;0.65;;
487;SDS011;16586;48.976;9.584;2022-10-17T09:31:46;1.90;;;0.70;;
487;SDS011;16586;48.976;9.584;2022-10-17T09:34:16;2.00;;;0.70;;
487;SDS011;16586;48.976;9.584;2022-10-17T09:36:43;2.90;;;0.70;;
487;SDS011;16586;48.976;9.584;2022-10-17T09:39:10;1.30;;;0.80;;
487;SDS011;16586;48.976;9.584;2022-10-17T09:41:40;2.90;;;0.80;;
487;SDS011;16586;48.976;9.584;2022-10-17T09:44:18;1.60;;;0.70;;
487;SDS011;16586;48.976;9.584;2022-10-17T09:46:51;1.60;;;0.60;;
487;SDS011;16586;48.976;9.584;2022-10-17T09:49:28;1.42;;;0.55;;
487;SDS011;16586;48.976;9.584;2022-10-17T09:51:58;0.90;;;0.50;;
487;SDS011;16586;48.976;9.584;2022-10-17T09:54:28;2.10;;;0.90;;
487;SDS011;16586;48.976;9.584;2022-10-17T09:57:02;1.50;;;0.80;;
487;SDS011;16586;48.976;9.584;2022-10-17T09:59:33;2.17;;;1.13;;
487;SDS011;16586;48.976;9.584;2022-10-17T10:02:07;2.78;;;1.17;;
487;SDS011;16586;48.976;9.584;2022-10-17T10:04:45;1.90;;;1.30;;
487;SDS011;16586;48.976;9.584;2022-10-17T10:07:17;2.50;;;1.10;;
487;SDS011;16586;48.976;9.584;2022-10-17T10:09:45;1.63;;;1.10;;
487;SDS011;16586;48.976;9.584;2022-10-17T10:12:18;1.60;;;1.05;;
487;SDS011;16586;48.976;9.584;2022-10-17T10:14:47;1.42;;;1.20;;
487;SDS011;16586;48.976;9.584;2022-10-17T10:17:25;2.58;;;1.13;;
487;SDS011;16586;48.976;9.584;2022-10-17T10:19:54;2.60;;;1.10;;
487;SDS011;16586;48.976;9.584;2022-10-17T10:22:21;1.70;;;1.20;;
487;SDS011;16586;48.976;9.584;2022-10-17T10:24:56;3.60;;;1.30;;
487;SDS011;16586;48.976;9.584;2022-10-17T10:27:32;2.58;;;0.90;;
487;SDS011;16586;48.976;9.584;2022-10-17T10:30:02;5.20;;;0.90;;
487;SDS011;16586;48.976;9.584;2022-10-17T10:32:30;3.42;;;0.80;;
487;SDS011;16586;48.976;9.584;2022-10-17T10:34:59;2.80;;;0.70;;
487;SDS011;16586;48.976;9.584;2022-10-17T10:37:28;1.65;;;0.77;;
487;SDS011;16586;48.976;9.584;2022-10-17T10:40:02;2.28;;;0.80;;
487;SDS011;16586;48.976;9.584;2022-10-17T10:42:31;1.47;;;0.87;;
487;SDS011;16586;48.976;9.584;2022-10-17T10:45:03;1.00;;;0.70;;
487;SDS011;16586;48.976;9.584;2022-10-17T10:47:48;1.60;;;0.70;;
487;SDS011;16586;48.976;9.584;2022-10-17T10:50:21;7.90;;;1.00;;
487;SDS011;16586;48.976;9.584;2022-10-17T10:52:55;1.50;;;0.80;;
487;SDS011;16586;48.976;9.584;2022-10-17T10:55:35;2.70;;;0.90;;
487;SDS011;16586;48.976;9.584;2022-10-17T10:58:08;1.50;;;0.90;;
487;SDS011;16586;48.976;9.584;2022-10-17T11:00:50;1.80;;;0.70;;
487;SDS011;16586;48.976;9.584;2022-10-17T11:03:20;2.95;;;0.80;;
487;SDS011;16586;48.976;9.584;2022-10-17T11:05:51;3.00;;;0.70;;
487;SDS011;16586;48.976;9.584;2022-10-17T11:08:22;1.27;;;0.60;;
487;SDS011;16586;48.976;9.584;2022-10-17T11:11:02;1.80;;;0.60;;
487;SDS011;16586;48.976;9.584;2022-10-17T11:13:38;2.70;;;0.80;;
487;SDS011;16586;48.976;9.584;2022-10-17T11:16:14;1.88;;;0.60;;
487;SDS011;16586;48.976;9.584;2022-10-17T11:18:48;2.63;;;0.80;;
487;SDS011;16586;48.976;9.584;2022-10-17T11:21:18;1.70;;;0.70;;
487;SDS011;16586;48.976;9.584;2022-10-17T11:23:55;1.90;;;0.70;;
487;SDS011;16586;48.976;9.584;2022-10-17T11:26:27;3.13;;;0.73;;
487;SDS011;16586;48.976;9.584;2022-10-17T11:28:58;3.20;;;0.70;;
487;SDS011;16586;48.976;9.584;2022-10-17T11:31:29;1.35;;;0.60;;
487;SDS011;16586;48.976;9.584;2022-10-17T11:33:59;0.97;;;0.57;;
487;SDS011;16586;48.976;9.584;2022-10-17T11:36:30;1.25;;;0.50;;
487;SDS011;16586;48.976;9.584;2022-10-17T11:39:00;2.13;;;0.70;;
487;SDS011;16586;48.976;9.584;2022-10-17T11:41:30;1.20;;;0.50;;
487;SDS011;16586;48.976;9.584;2022-10-17T11:44:03;1.08;;;0.50;;
487;SDS011;16586;48.976;9.584;2022-10-17T11:46:38;2.00;;;0.70;;
487;SDS011;16586;48.976;9.584;2022-10-17T11:49:10;1.10;;;0.50;;
487;SDS011;16586;48.976;9.584;2022-10-17T11:51:42;1.90;;;0.70;;
487;SDS011;16586;48.976;9.584;2022-10-17T11:54:12;1.10;;;0.60;;
487;SDS011;16586;48.976;9.584;2022-10-17T11:56:43;1.90;;;0.60;;
487;SDS011;16586;48.976;9.584;2022-10-17T11:59:22;1.70;;;0.70;;
487;SDS011;16586;48.976;9.584;2022-10-17T12:02:13;1.30;;;0.50;;
487;SDS011;16586;48.976;9.584;2022-10-17T12:04:48;1.00;;;0.60;;
487;SDS011;16586;48.976;9.584;2022-10-17T12:07:24;1.63;;;0.60;;
487;SDS011;16586;48.976;9.584;2022-10-17T12:10:01;1.90;;;0.70;;
487;SDS011;16586;48.976;9.584;2022-10-17T12:12:39;1.90;;;0.73;;
487;SDS011;16586;48.976;9.584;2022-10-17T12:17:56;1.17;;;0.52;;
487;SDS011;16586;48.976;9.584;2022-10-17T12:20:31;2.15;;;0.70;;
487;SDS011;16586;48.976;9.584;2022-10-17T12:25:49;1.45;;;0.80;;
487;SDS011;16586;48.976;9.584;2022-10-17T12:28:20;3.80;;;0.80;;
487;SDS011;16586;48.976;9.584;2022-10-17T12:30:53;2.85;;;0.85;;
487;SDS011;16586;48.976;9.584;2022-10-17T12:33:24;1.50;;;0.70;;
487;SDS011;16586;48.976;9.584;2022-10-17T12:42:30;1.30;;;0.60;;
487;SDS011;16586;48.976;9.584;2022-10-17T12:48:12;2.30;;;0.70;;
487;SDS011;16586;48.976;9.584;2022-10-17T12:51:12;1.35;;;0.50;;
487;SDS011;16586;48.976;9.584;2022-10-17T12:53:43;1.40;;;0.80;;
487;SDS011;16586;48.976;9.584;2022-10-17T12:56:15;1.40;;;0.70;;
487;SDS011;16586;48.976;9.584;2022-10-17T12:58:45;1.48;;;0.60;;
487;SDS011;16586;48.976;9.584;2022-10-17T13:01:15;2.17;;;0.65;;
487;SDS011;16586;48.976;9.584;2022-10-17T13:03:46;1.73;;;0.70;;
487;SDS011;16586;48.976;9.584;2022-10-17T13:06:18;0.98;;;0.50;;
487;SDS011;16586;48.976;9.584;2022-10-17T13:08:48;2.20;;;0.70;;
487;SDS011;16586;48.976;9.584;2022-10-17T13:11:21;1.40;;;0.60;;
487;SDS011;16586;48.976;9.584;2022-10-17T13:13:51;2.15;;;0.73;;
487;SDS011;16586;48.976;9.584;2022-10-17T13:16:29;1.50;;;0.60;;
487;SDS011;16586;48.976;9.584;2022-10-17T13:18:57;2.20;;;0.80;;
487;SDS011;16586;48.976;9.584;2022-10-17T13:21:26;1.10;;;0.50;;
487;SDS011;16586;48.976;9.584;2022-10-17T13:23:54;2.20;;;0.80;;
487;SDS011;16586;48.976;9.584;2022-10-17T13:26:21;2.00;;;0.80;;
487;SDS011;16586;48.976;9.584;2022-10-17T13:29:02;1.35;;;0.80;;
487;SDS011;16586;48.976;9.584;2022-10-17T13:31:31;1.50;;;0.73;;
487;SDS011;16586;48.976;9.584;2022-10-17T13:33:59;2.97;;;0.80;;
487;SDS011;16586;48.976;9.584;2022-10-17T13:36:29;2.97;;;0.85;;
487;SDS011;16586;48.976;9.584;2022-10-17T13:38:57;1.10;;;0.63;;
487;SDS011;16586;48.976;9.584;2022-10-17T13:41:30;1.00;;;0.60;;
487;SDS011;16586;48.976;9.584;2022-10-17T13:43:59;1.10;;;0.60;;
487;SDS011;16586;48.976;9.584;2022-10-17T13:46:29;2.50;;;0.70;;
487;SDS011;16586;48.976;9.584;2022-10-17T13:48:57;1.75;;;0.70;;
487;SDS011;16586;48.976;9.584;2022-10-17T13:51:25;2.80;;;0.80;;
487;SDS011;16586;48.976;9.584;2022-10-17T13:53:54;1.52;;;0.70;;
487;SDS011;16586;48.976;9.584;2022-10-17T13:56:22;1.75;;;0.65;;
487;SDS011;16586;48.976;9.584;2022-10-17T13:58:50;2.22;;;1.00;;
487;SDS011;16586;48.976;9.584;2022-10-17T14:01:20;2.10;;;0.75;;
487;SDS011;16586;48.976;9.584;2022-10-17T14:03:48;1.33;;;0.68;;
487;SDS011;16586;48.976;9.584;2022-10-17T14:06:16;1.50;;;0.70;;
487;SDS011;16586;48.976;9.584;2022-10-17T14:08:56;2.30;;;0.82;;
487;SDS011;16586;48.976;9.584;2022-10-17T14:11:28;1.52;;;0.80;;
487;SDS011;16586;48.976;9.584;2022-10-17T14:13:58;2.72;;;0.77;;
487;SDS011;16586;48.976;9.584;2022-10-17T14:16:31;1.90;;;0.80;;
487;SDS011;16586;48.976;9.584;2022-10-17T14:19:01;1.77;;;0.80;;
487;SDS011;16586;48.976;9.584;2022-10-17T14:21:28;1.98;;;0.60;;
487;SDS011;16586;48.976;9.584;2022-10-17T14:24:26;1.45;;;0.80;;
487;SDS011;16586;48.976;9.584;2022-10-17T14:26:56;3.30;;;1.10;;
487;SDS011;16586;48.976;9.584;2022-10-17T14:29:24;2.45;;;0.90;;
487;SDS011;16586;48.976;9.584;2022-10-17T14:32:00;1.17;;;0.80;;
487;SDS011;16586;48.976;9.584;2022-10-17T14:34:31;1.33;;;0.90;;
487;SDS011;16586;48.976;9.584;2022-10-17T14:36:59;1.80;;;1.00;;
487;SDS011;16586;48.976;9.584;2022-10-17T14:39:28;4.70;;;1.00;;
487;SDS011;16586;48.976;9.584;2022-10-17T14:41:55;2.60;;;1.00;;
487;SDS011;16586;48.976;9.584;2022-10-17T14:44:23;1.25;;;0.80;;
487;SDS011;16586;48.976;9.584;2022-10-17T14:46:54;0.90;;;0.60;;
487;SDS011;16586;48.976;9.584;2022-10-17T14:49:25;1.97;;;0.70;;
487;SDS011;16586;48.976;9.584;2022-10-17T14:54:57;3.40;;;1.00;;
487;SDS011;16586;48.976;9.584;2022-10-17T14:57:27;1.20;;;0.70;;
487;SDS011;16586;48.976;9.584;2022-10-17T15:00:00;1.30;;;0.70;;
487;SDS011;16586;48.976;9.584;2022-10-17T15:02:27;1.40;;;0.80;;
487;SDS011;16586;48.976;9.584;2022-10-17T15:04:54;1.10;;;0.60;;
487;SDS011;16586;48.976;9.584;2022-10-17T15:07:21;1.85;;;0.90;;
487;SDS011;16586;48.976;9.584;2022-10-17T15:09:49;2.65;;;0.80;;
487;SDS011;16586;48.976;9.584;2022-10-17T15:12:20;2.17;;;1.10;;
487;SDS011;16586;48.976;9.584;2022-10-17T15:14:48;2.17;;;0.80;;
487;SDS011;16586;48.976;9.584;2022-10-17T15:17:18;1.40;;;0.80;;
487;SDS011;16586;48.976;9.584;2022-10-17T15:19:46;2.30;;;0.80;;
487;SDS011;16586;48.976;9.584;2022-10-17T15:22:14;1.10;;;0.70;;
487;SDS011;16586;48.976;9.584;2022-10-17T15:24:42;1.23;;;0.70;;
487;SDS011;16586;48.976;9.584;2022-10-17T15:27:12;2.70;;;0.90;;
487;SDS011;16586;48.976;9.584;2022-10-17T15:29:42;3.40;;;1.00;;
487;SDS011;16586;48.976;9.584;2022-10-17T15:32:09;1.48;;;1.00;;
487;SDS011;16586;48.976;9.584;2022-10-17T15:34:36;1.92;;;0.70;;
487;SDS011;16586;48.976;9.584;2022-10-17T15:37:03;3.65;;;1.40;;
487;SDS011;16586;48.976;9.584;2022-10-17T15:39:31;1.60;;;1.33;;
487;SDS011;16586;48.976;9.584;2022-10-17T15:41:58;1.20;;;0.88;;
487;SDS011;16586;48.976;9.584;2022-10-17T15:44:24;2.00;;;0.80;;
487;SDS011;16586;48.976;9.584;2022-10-17T15:46:53;3.20;;;0.80;;
487;SDS011;16586;48.976;9.584;2022-10-17T15:49:21;1.50;;;0.75;;
487;SDS011;16586;48.976;9.584;2022-10-17T15:51:47;1.30;;;0.80;;
487;SDS011;16586;48.976;9.584;2022-10-17T15:54:14;2.60;;;0.90;;